Time;durP1;ratioP1;P1;durP2;ratioP2;P2;SDS_P1;SDS_P2;PMS_P1;PMS_P2;Temp;Humidity;BMP_temperature;BMP_pressure;BME280_temperature;BME280_humidity;BME280_pressure;Samples;Min_cycle;Max_cycle;Signal;HPM_P1;HPM_P2
2022/04/17 00:02:01;;;;;;;7.40;3.88;;;;;;;;;;5123896;28;20058;-46
2022/04/17 00:04:26;;;;;;;3.40;2.58;;;;;;;;;;5123650;28;20091;-45
2022/04/17 00:06:52;;;;;;;5.90;3.42;;;;;;;;;;5123346;28;20369;-46
2022/04/17 00:09:17;;;;;;;11.20;4.30;;;;;;;;;;5124159;28;20141;-44
2022/04/17 00:11:43;;;;;;;5.30;3.00;;;;;;;;;;5123629;28;20051;-46
2022/04/17 00:14:10;;;;;;;3.45;2.40;;;;;;;;;;5124951;28;20426;-45
2022/04/17 00:16:35;;;;;;;3.10;2.53;;;;;;;;;;5124244;28;20058;-47
2022/04/17 00:19:01;;;;;;;3.20;2.58;;;;;;;;;;5123920;28;20047;-41
2022/04/17 00:21:26;;;;;;;4.13;3.50;;;;;;;;;;5123818;28;20051;-44
2022/04/17 00:23:52;;;;;;;4.30;2.83;;;;;;;;;;5123407;28;20077;-44
2022/04/17 00:26:17;;;;;;;29.85;4.20;;;;;;;;;;5124008;28;20043;-42
2022/04/17 00:28:42;;;;;;;5.10;2.83;;;;;;;;;;5124761;28;20107;-44
2022/04/17 00:31:08;;;;;;;6.20;3.38;;;;;;;;;;5124067;28;20483;-45
2022/04/17 00:33:34;;;;;;;4.97;3.65;;;;;;;;;;5124229;28;20547;-44
2022/04/17 00:35:59;;;;;;;7.68;3.92;;;;;;;;;;5124265;28;20047;-48
2022/04/17 00:38:24;;;;;;;19.60;5.20;;;;;;;;;;5123218;28;20509;-45
2022/04/17 00:40:52;;;;;;;5.53;3.58;;;;;;;;;;5123706;28;20090;-42
2022/04/17 00:43:26;;;;;;;5.07;4.45;;;;;;;;;;5124332;28;20093;-43
2022/04/17 00:45:55;;;;;;;4.53;3.25;;;;;;;;;;5123967;28;20057;-43
2022/04/17 00:48:21;;;;;;;10.27;4.47;;;;;;;;;;5120940;28;20099;-46
2022/04/17 00:50:46;;;;;;;6.43;3.00;;;;;;;;;;5122957;28;20047;-43
2022/04/17 00:53:12;;;;;;;8.52;3.83;;;;;;;;;;5122885;28;20051;-45
2022/04/17 00:55:37;;;;;;;2.88;2.30;;;;;;;;;;5122578;28;20531;-42
2022/04/17 00:58:03;;;;;;;2.92;2.33;;;;;;;;;;5123167;28;20134;-44
2022/04/17 01:00:29;;;;;;;12.85;3.55;;;;;;;;;;5123094;28;20047;-42
2022/04/17 01:02:54;;;;;;;4.10;2.40;;;;;;;;;;5122399;28;20116;-42
2022/04/17 01:05:20;;;;;;;5.88;3.90;;;;;;;;;;5123079;28;20518;-44
2022/04/17 01:07:46;;;;;;;9.48;3.10;;;;;;;;;;5122358;27;20051;-46
2022/04/17 01:10:12;;;;;;;6.38;3.97;;;;;;;;;;5122166;28;20336;-44
2022/04/17 01:12:37;;;;;;;4.75;3.38;;;;;;;;;;5122008;28;20043;-45
2022/04/17 01:15:03;;;;;;;4.95;3.88;;;;;;;;;;5123098;28;20038;-44
2022/04/17 01:17:28;;;;;;;7.45;3.65;;;;;;;;;;5123822;28;20451;-45
2022/04/17 01:19:54;;;;;;;4.47;2.72;;;;;;;;;;5123370;28;20051;-44
2022/04/17 01:22:19;;;;;;;10.13;4.35;;;;;;;;;;5123512;28;20051;-43
2022/04/17 01:27:30;;;;;;;6.32;3.13;;;;;;;;;;5123848;28;20111;-44
2022/04/17 01:29:55;;;;;;;6.32;3.42;;;;;;;;;;5123338;28;20498;-48
2022/04/17 01:32:21;;;;;;;15.75;8.25;;;;;;;;;;5123546;28;20110;-44
2022/04/17 01:34:47;;;;;;;22.35;8.25;;;;;;;;;;5123745;28;20051;-43
2022/04/17 01:37:13;;;;;;;6.78;5.95;;;;;;;;;;5123766;28;20118;-44
2022/04/17 01:39:39;;;;;;;18.17;8.02;;;;;;;;;;5120130;28;20051;-42
2022/04/17 01:42:05;;;;;;;8.80;5.05;;;;;;;;;;5123479;28;20564;-44
2022/04/17 01:44:30;;;;;;;6.53;5.13;;;;;;;;;;5123246;28;20035;-42
2022/04/17 01:46:56;;;;;;;7.30;4.40;;;;;;;;;;5123412;28;20039;-42
2022/04/17 01:49:23;;;;;;;13.95;5.43;;;;;;;;;;5123819;28;20130;-43
2022/04/17 01:51:51;;;;;;;7.25;5.95;;;;;;;;;;5123134;28;20072;-45
2022/04/17 01:54:18;;;;;;;12.27;6.78;;;;;;;;;;5123185;28;20058;-45
2022/04/17 01:56:44;;;;;;;11.20;5.47;;;;;;;;;;5123112;28;20054;-45
2022/04/17 01:59:09;;;;;;;14.85;4.55;;;;;;;;;;5123094;28;20051;-43
2022/04/17 02:01:36;;;;;;;18.55;5.47;;;;;;;;;;5122089;28;20051;-45
2022/04/17 02:04:02;;;;;;;13.27;5.35;;;;;;;;;;5123960;28;20059;-45
2022/04/17 02:06:27;;;;;;;7.13;5.05;;;;;;;;;;5123306;28;20170;-41
2022/04/17 02:08:53;;;;;;;9.07;4.00;;;;;;;;;;5122969;28;20323;-42
2022/04/17 02:11:19;;;;;;;5.70;3.05;;;;;;;;;;5122374;28;20490;-43
2022/04/17 02:13:45;;;;;;;6.57;4.13;;;;;;;;;;5123044;28;20031;-42
2022/04/17 02:16:11;;;;;;;11.25;5.97;;;;;;;;;;5102332;28;20047;-46
2022/04/17 02:18:36;;;;;;;5.63;4.60;;;;;;;;;;5123350;28;20055;-44
2022/04/17 02:21:01;;;;;;;9.23;4.22;;;;;;;;;;5124711;27;20418;-43
2022/04/17 02:23:27;;;;;;;6.65;3.47;;;;;;;;;;5126556;28;20149;-45
2022/04/17 02:25:53;;;;;;;7.82;3.83;;;;;;;;;;5126248;28;20562;-43
2022/04/17 02:28:18;;;;;;;4.50;3.92;;;;;;;;;;5125829;28;20047;-44
2022/04/17 02:30:43;;;;;;;13.75;8.20;;;;;;;;;;5126003;28;20388;-44
2022/04/17 02:33:09;;;;;;;6.10;4.47;;;;;;;;;;5126007;28;20047;-42
2022/04/17 02:35:34;;;;;;;15.20;8.27;;;;;;;;;;5126546;28;20054;-43
2022/04/17 02:38:00;;;;;;;26.63;8.57;;;;;;;;;;5126384;28;20119;-47
2022/04/17 02:40:25;;;;;;;33.00;20.67;;;;;;;;;;5125835;28;20031;-42
2022/04/17 02:42:53;;;;;;;44.28;19.98;;;;;;;;;;5125734;28;20512;-45
2022/04/17 02:45:19;;;;;;;44.22;18.15;;;;;;;;;;5126138;28;20039;-43
2022/04/17 02:47:45;;;;;;;27.02;15.85;;;;;;;;;;5126128;28;20620;-42
2022/04/17 02:50:11;;;;;;;18.27;9.73;;;;;;;;;;5125871;28;20142;-43
2022/04/17 02:52:37;;;;;;;15.25;8.30;;;;;;;;;;5125857;28;20092;-42
2022/04/17 02:55:02;;;;;;;11.55;6.55;;;;;;;;;;5125063;28;20054;-43
2022/04/17 02:57:28;;;;;;;17.70;5.78;;;;;;;;;;5125303;28;20039;-44
2022/04/17 02:59:53;;;;;;;13.73;7.15;;;;;;;;;;5124249;28;20566;-42
2022/04/17 03:05:48;;;;;;;7.93;5.72;;;;;;;;;;5125613;28;20049;-44
2022/04/17 03:07:49;;;;;;;6.00;3.60;;;;;;;;;;5114483;28;20050;-44
2022/04/17 03:10:14;;;;;;;9.85;4.35;;;;;;;;;;5125469;28;20090;-43
2022/04/17 03:12:40;;;;;;;6.50;3.85;;;;;;;;;;5124496;28;20726;-45
2022/04/17 03:15:06;;;;;;;6.93;3.30;;;;;;;;;;5125300;28;20120;-47
2022/04/17 03:17:31;;;;;;;8.32;5.10;;;;;;;;;;5125126;28;20085;-42
2022/04/17 03:19:57;;;;;;;5.30;3.38;;;;;;;;;;5125652;28;20098;-44
2022/04/17 03:22:22;;;;;;;5.05;4.22;;;;;;;;;;5124896;28;20494;-43
2022/04/17 03:24:48;;;;;;;5.80;3.53;;;;;;;;;;5124972;28;20043;-45
2022/04/17 03:27:13;;;;;;;8.50;3.50;;;;;;;;;;5124945;28;20595;-45
2022/04/17 03:29:39;;;;;;;8.13;3.42;;;;;;;;;;5125017;28;20039;-42
2022/04/17 03:32:04;;;;;;;4.10;2.40;;;;;;;;;;5124065;27;20344;-43
2022/04/17 03:34:29;;;;;;;5.15;3.25;;;;;;;;;;5125230;28;20512;-44
2022/04/17 03:36:58;;;;;;;6.43;3.97;;;;;;;;;;5125323;28;20170;-43
2022/04/17 03:39:24;;;;;;;6.28;5.05;;;;;;;;;;5124777;28;20054;-42
2022/04/17 03:41:50;;;;;;;10.07;3.38;;;;;;;;;;5125371;28;20111;-41
2022/04/17 03:44:15;;;;;;;9.82;4.50;;;;;;;;;;5124804;28;20047;-45
2022/04/17 03:46:41;;;;;;;13.23;5.18;;;;;;;;;;5125223;28;20109;-43
2022/04/17 03:49:07;;;;;;;5.30;4.05;;;;;;;;;;5125128;28;20573;-45
2022/04/17 03:51:32;;;;;;;13.20;6.63;;;;;;;;;;5124982;28;20087;-43
2022/04/17 03:53:57;;;;;;;29.65;6.25;;;;;;;;;;5124850;28;20050;-45
2022/04/17 03:56:23;;;;;;;9.50;6.43;;;;;;;;;;5124638;28;20073;-42
2022/04/17 03:58:48;;;;;;;20.15;4.75;;;;;;;;;;5124687;28;20482;-47
2022/04/17 04:01:14;;;;;;;6.85;6.13;;;;;;;;;;5124422;28;20055;-46
2022/04/17 04:03:39;;;;;;;8.82;6.43;;;;;;;;;;5125115;28;20086;-41
2022/04/17 04:06:05;;;;;;;7.38;5.85;;;;;;;;;;5124051;28;20138;-43
2022/04/17 04:08:30;;;;;;;8.10;4.80;;;;;;;;;;5125611;28;20039;-43
2022/04/17 04:10:56;;;;;;;8.35;4.68;;;;;;;;;;5123791;28;20405;-43
2022/04/17 04:13:21;;;;;;;5.70;3.85;;;;;;;;;;5124308;28;20118;-45
2022/04/17 04:15:46;;;;;;;4.38;3.28;;;;;;;;;;5124254;28;20092;-48
2022/04/17 04:18:12;;;;;;;4.07;3.08;;;;;;;;;;5124721;28;20059;-44
2022/04/17 04:20:37;;;;;;;6.45;3.60;;;;;;;;;;5124252;28;20051;-45
2022/04/17 04:23:02;;;;;;;12.88;4.60;;;;;;;;;;5124775;28;20969;-43
2022/04/17 04:25:28;;;;;;;6.03;3.33;;;;;;;;;;5124873;28;20042;-44
2022/04/17 04:30:37;;;;;;;20.92;4.15;;;;;;;;;;5123904;28;20545;-44
2022/04/17 04:33:02;;;;;;;15.38;4.45;;;;;;;;;;5123833;28;20043;-44
2022/04/17 04:35:29;;;;;;;6.18;3.88;;;;;;;;;;5123744;28;20047;-45
2022/04/17 04:37:56;;;;;;;6.10;3.50;;;;;;;;;;5124433;28;20056;-46
2022/04/17 04:40:21;;;;;;;7.38;3.67;;;;;;;;;;5124408;28;20441;-44
2022/04/17 04:42:46;;;;;;;6.50;3.85;;;;;;;;;;5123474;27;20043;-43
2022/04/17 04:47:55;;;;;;;7.28;4.85;;;;;;;;;;5124158;28;20184;-43
2022/04/17 04:50:21;;;;;;;6.65;3.55;;;;;;;;;;5123963;28;20055;-46
2022/04/17 04:52:46;;;;;;;9.02;5.90;;;;;;;;;;5123858;28;20478;-43
2022/04/17 04:55:12;;;;;;;6.32;4.03;;;;;;;;;;5124093;28;20505;-44
2022/04/17 04:57:37;;;;;;;5.93;4.72;;;;;;;;;;5123321;28;20055;-46
2022/04/17 05:00:07;;;;;;;6.00;4.78;;;;;;;;;;5123626;28;20149;-44
2022/04/17 05:02:34;;;;;;;7.60;4.88;;;;;;;;;;5123662;28;20102;-44
2022/04/17 05:04:59;;;;;;;5.65;3.05;;;;;;;;;;5122105;28;20537;-44
2022/04/17 05:07:24;;;;;;;9.35;4.18;;;;;;;;;;5123670;28;20038;-43
2022/04/17 05:09:50;;;;;;;6.65;3.95;;;;;;;;;;5123422;28;20688;-46
2022/04/17 05:12:15;;;;;;;6.70;2.58;;;;;;;;;;5123586;28;20039;-48
2022/04/17 05:14:45;;;;;;;6.07;2.25;;;;;;;;;;5123701;28;20115;-46
2022/04/17 05:17:10;;;;;;;6.10;3.45;;;;;;;;;;5121980;28;20149;-43
2022/04/17 05:19:39;;;;;;;3.95;2.40;;;;;;;;;;5123442;28;20114;-46
2022/04/17 05:22:10;;;;;;;3.42;2.60;;;;;;;;;;5123058;28;20108;-47
2022/04/17 05:24:35;;;;;;;;;;;;;;;;;;5123699;28;20890;-45
2022/04/17 05:27:01;;;;;;;5.60;2.63;;;;;;;;;;5123704;28;19915;-45
2022/04/17 05:29:26;;;;;;;10.15;4.07;;;;;;;;;;5123659;28;20279;-42
2022/04/17 05:31:52;;;;;;;4.38;3.60;;;;;;;;;;5122784;28;20092;-45
2022/04/17 05:34:17;;;;;;;9.38;6.07;;;;;;;;;;5123316;28;20047;-45
2022/04/17 05:36:43;;;;;;;11.93;5.32;;;;;;;;;;5123010;28;20051;-45
2022/04/17 05:39:08;;;;;;;13.00;7.53;;;;;;;;;;5122665;28;20111;-50
2022/04/17 05:41:33;;;;;;;6.00;5.38;;;;;;;;;;5123049;28;20058;-44
2022/04/17 05:43:59;;;;;;;9.23;5.93;;;;;;;;;;5123997;28;20051;-42
2022/04/17 05:46:27;;;;;;;9.25;7.07;;;;;;;;;;5123175;28;20047;-50
2022/04/17 05:48:52;;;;;;;11.70;8.07;;;;;;;;;;5122182;28;20047;-43
2022/04/17 05:51:18;;;;;;;7.75;5.22;;;;;;;;;;5122977;28;20498;-47
2022/04/17 05:53:43;;;;;;;11.95;6.57;;;;;;;;;;5123209;28;20035;-47
2022/04/17 05:56:09;;;;;;;7.38;6.30;;;;;;;;;;5125364;27;20039;-47
2022/04/17 05:58:34;;;;;;;7.90;4.82;;;;;;;;;;5126156;28;20468;-42
2022/04/17 06:01:02;;;;;;;12.13;6.25;;;;;;;;;;5126883;28;20074;-44
2022/04/17 06:03:27;;;;;;;6.63;5.35;;;;;;;;;;5123417;28;20111;-44
2022/04/17 06:05:53;;;;;;;10.88;5.15;;;;;;;;;;5125224;28;20043;-43
2022/04/17 06:08:19;;;;;;;6.13;4.68;;;;;;;;;;5125709;28;20030;-42
2022/04/17 06:10:44;;;;;;;6.95;5.03;;;;;;;;;;5125756;28;20119;-44
2022/04/17 06:13:10;;;;;;;5.40;4.75;;;;;;;;;;5124800;28;20513;-43
2022/04/17 06:15:35;;;;;;;7.90;5.35;;;;;;;;;;5126347;28;20058;-43
2022/04/17 06:18:00;;;;;;;9.15;5.25;;;;;;;;;;5126420;28;20259;-42
2022/04/17 06:20:26;;;;;;;7.97;5.00;;;;;;;;;;5124154;28;20047;-44
2022/04/17 06:22:51;;;;;;;15.95;4.97;;;;;;;;;;5126156;28;20047;-43
2022/04/17 06:25:17;;;;;;;5.70;4.38;;;;;;;;;;5126011;28;20414;-42
2022/04/17 06:27:43;;;;;;;6.95;5.85;;;;;;;;;;5126016;28;20047;-43
2022/04/17 06:30:11;;;;;;;12.95;7.72;;;;;;;;;;5125718;28;20120;-44
2022/04/17 06:32:37;;;;;;;6.50;5.53;;;;;;;;;;5125704;28;20043;-42
2022/04/17 06:35:03;;;;;;;5.72;5.13;;;;;;;;;;5126133;28;20138;-45
2022/04/17 06:37:29;;;;;;;5.82;5.18;;;;;;;;;;5126036;28;20511;-48
2022/04/17 06:39:56;;;;;;;15.82;6.03;;;;;;;;;;5125907;28;20047;-42
2022/04/17 06:42:21;;;;;;;16.27;4.55;;;;;;;;;;5125915;28;20043;-44
2022/04/17 06:44:46;;;;;;;8.07;4.65;;;;;;;;;;5125908;28;20415;-44
2022/04/17 06:47:12;;;;;;;7.65;5.45;;;;;;;;;;5107992;28;20153;-48
2022/04/17 06:49:38;;;;;;;8.38;7.47;;;;;;;;;;5125961;28;20451;-45
2022/04/17 06:52:03;;;;;;;8.30;5.15;;;;;;;;;;5126171;28;20509;-42
2022/04/17 06:54:29;;;;;;;9.68;6.80;;;;;;;;;;5125919;28;20078;-48
2022/04/17 06:56:54;;;;;;;7.00;6.28;;;;;;;;;;5125841;28;20039;-47
2022/04/17 06:59:19;;;;;;;8.38;6.22;;;;;;;;;;5125098;28;20563;-47
2022/04/17 07:01:45;;;;;;;6.47;4.97;;;;;;;;;;5125221;28;20047;-45
2022/04/17 07:04:10;;;;;;;34.97;7.97;;;;;;;;;;5126277;28;20054;-45
2022/04/17 07:06:36;;;;;;;16.00;7.00;;;;;;;;;;5124117;27;20130;-49
2022/04/17 07:09:01;;;;;;;10.32;5.80;;;;;;;;;;5125368;28;20040;-46
2022/04/17 07:11:27;;;;;;;11.20;7.18;;;;;;;;;;5123886;28;20102;-45
2022/04/17 07:13:53;;;;;;;11.07;7.13;;;;;;;;;;5125650;28;20051;-46
2022/04/17 07:16:18;;;;;;;12.27;6.32;;;;;;;;;;5125103;28;20054;-43
2022/04/17 07:18:44;;;;;;;13.35;8.38;;;;;;;;;;5125649;28;20110;-48
2022/04/17 07:21:09;;;;;;;7.18;5.28;;;;;;;;;;5124862;28;20054;-42
2022/04/17 07:23:34;;;;;;;7.13;5.43;;;;;;;;;;5124752;28;20051;-44
2022/04/17 07:26:00;;;;;;;11.40;7.60;;;;;;;;;;5125125;28;20051;-45
2022/04/17 07:28:25;;;;;;;35.60;11.68;;;;;;;;;;5124769;28;20050;-45
2022/04/17 07:30:50;;;;;;;18.02;7.15;;;;;;;;;;5124463;28;20524;-41
2022/04/17 07:33:17;;;;;;;7.47;6.78;;;;;;;;;;5125836;28;20054;-44
2022/04/17 07:35:43;;;;;;;5.28;3.90;;;;;;;;;;5125167;28;20087;-47
2022/04/17 07:38:08;;;;;;;5.88;4.85;;;;;;;;;;5125444;28;20047;-46
2022/04/17 07:40:34;;;;;;;9.57;5.65;;;;;;;;;;5125132;28;20691;-45
2022/04/17 07:43:00;;;;;;;9.30;7.22;;;;;;;;;;5123730;28;20043;-44
2022/04/17 07:45:26;;;;;;;15.32;11.82;;;;;;;;;;5125395;28;20049;-42
2022/04/17 07:47:52;;;;;;;8.32;6.80;;;;;;;;;;5124424;28;20053;-46
2022/04/17 07:50:23;;;;;;;8.70;5.55;;;;;;;;;;5125073;28;20125;-46
2022/04/17 07:52:48;;;;;;;5.63;3.95;;;;;;;;;;5123636;28;20103;-47
2022/04/17 07:55:14;;;;;;;11.52;3.85;;;;;;;;;;5124395;28;20059;-45
2022/04/17 08:00:24;;;;;;;13.98;4.53;;;;;;;;;;5124263;28;20196;-47
2022/04/17 08:02:55;;;;;;;7.43;5.68;;;;;;;;;;5123963;28;20078;-48
2022/04/17 08:05:23;;;;;;;9.60;8.00;;;;;;;;;;5125330;28;20035;-42
2022/04/17 08:07:49;;;;;;;8.40;4.80;;;;;;;;;;5124298;28;20039;-45
2022/04/17 08:10:15;;;;;;;8.68;5.60;;;;;;;;;;5123027;28;20058;-45
2022/04/17 08:12:40;;;;;;;4.43;3.47;;;;;;;;;;5123417;28;20051;-48
2022/04/17 08:15:06;;;;;;;4.22;2.47;;;;;;;;;;5124090;28;20518;-48
2022/04/17 08:17:32;;;;;;;1.95;1.08;;;;;;;;;;5123456;27;20050;-44
2022/04/17 08:19:57;;;;;;;3.65;2.90;;;;;;;;;;5123735;28;20047;-43
2022/04/17 08:22:22;;;;;;;7.07;4.05;;;;;;;;;;5123807;28;20336;-43
2022/04/17 08:24:48;;;;;;;6.72;2.53;;;;;;;;;;5124191;28;20485;-45
2022/04/17 08:27:13;;;;;;;4.90;3.15;;;;;;;;;;5123946;28;21134;-44
2022/04/17 08:29:38;;;;;;;11.80;3.45;;;;;;;;;;5123916;28;20138;-47
2022/04/17 08:32:04;;;;;;;7.13;1.35;;;;;;;;;;5124629;28;20043;-47
2022/04/17 08:34:29;;;;;;;9.30;2.85;;;;;;;;;;5123656;28;20479;-51
2022/04/17 08:36:55;;;;;;;2.17;1.58;;;;;;;;;;5124187;28;20503;-47
2022/04/17 08:39:20;;;;;;;7.47;2.13;;;;;;;;;;5124650;28;20043;-44
2022/04/17 08:41:47;;;;;;;4.93;1.90;;;;;;;;;;5124099;28;20463;-46
2022/04/17 08:44:12;;;;;;;10.30;2.50;;;;;;;;;;5123630;28;20051;-46
2022/04/17 08:46:38;;;;;;;4.45;2.00;;;;;;;;;;5123063;28;20088;-50
2022/04/17 08:49:06;;;;;;;3.60;2.58;;;;;;;;;;5124248;28;20058;-48
2022/04/17 08:51:32;;;;;;;3.38;2.00;;;;;;;;;;5124727;28;20074;-46
2022/04/17 08:53:59;;;;;;;4.25;1.98;;;;;;;;;;5123475;28;20501;-47
2022/04/17 08:56:24;;;;;;;9.70;1.17;;;;;;;;;;5123042;28;20046;-49
2022/04/17 08:58:49;;;;;;;8.15;3.65;;;;;;;;;;5123979;28;20038;-45
2022/04/17 09:01:17;;;;;;;1.92;1.25;;;;;;;;;;5123125;28;20221;-46
2022/04/17 09:03:45;;;;;;;1.88;1.10;;;;;;;;;;5121496;28;20361;-48
2022/04/17 09:06:11;;;;;;;2.20;1.10;;;;;;;;;;5124463;28;20039;-46
2022/04/17 09:08:36;;;;;;;1.30;0.75;;;;;;;;;;5123011;28;20043;-44
2022/04/17 09:11:02;;;;;;;1.67;0.70;;;;;;;;;;5122193;28;20039;-48
2022/04/17 09:13:28;;;;;;;2.65;1.35;;;;;;;;;;5123967;28;20047;-46
2022/04/17 09:15:54;;;;;;;1.23;0.80;;;;;;;;;;5123578;28;20039;-44
2022/04/17 09:18:19;;;;;;;2.15;0.88;;;;;;;;;;5122175;28;20054;-47
2022/04/17 09:20:46;;;;;;;1.40;0.60;;;;;;;;;;5123366;28;20054;-48
2022/04/17 09:23:12;;;;;;;0.90;0.60;;;;;;;;;;5123520;28;20043;-51
2022/04/17 09:25:37;;;;;;;2.35;1.08;;;;;;;;;;5123047;28;20069;-47
2022/04/17 09:28:09;;;;;;;1.60;1.27;;;;;;;;;;5123142;28;20417;-47
2022/04/17 09:30:34;;;;;;;1.70;1.33;;;;;;;;;;5122495;27;20043;-43
2022/04/17 09:33:04;;;;;;;4.88;1.27;;;;;;;;;;5127184;28;20141;-49
2022/04/17 09:35:29;;;;;;;3.47;1.08;;;;;;;;;;5126494;28;20054;-45
2022/04/17 09:37:59;;;;;;;4.75;1.35;;;;;;;;;;5127186;28;20055;-48
2022/04/17 09:40:25;;;;;;;7.97;1.40;;;;;;;;;;5126557;28;20098;-47
2022/04/17 09:43:06;;;;;;;4.72;1.30;;;;;;;;;;5126510;28;20371;-47
2022/04/17 09:45:31;;;;;;;3.58;2.05;;;;;;;;;;5126619;28;20130;-48
2022/04/17 09:47:56;;;;;;;5.32;2.15;;;;;;;;;;5126684;28;20488;-46
2022/04/17 09:50:34;;;;;;;5.40;2.20;;;;;;;;;;5126266;28;20099;-47
2022/04/17 09:53:05;;;;;;;4.30;1.75;;;;;;;;;;5127108;28;20138;-43
2022/04/17 09:55:31;;;;;;;5.55;2.22;;;;;;;;;;5125738;28;20512;-46
2022/04/17 09:57:58;;;;;;;1.58;1.00;;;;;;;;;;5125919;28;20145;-49
2022/04/17 10:00:24;;;;;;;5.00;1.95;;;;;;;;;;5126295;28;20038;-47
2022/04/17 10:02:50;;;;;;;1.17;0.90;;;;;;;;;;5125805;28;20051;-48
2022/04/17 10:05:16;;;;;;;10.00;3.25;;;;;;;;;;5126189;28;20046;-46
2022/04/17 10:07:42;;;;;;;3.72;2.17;;;;;;;;;;5124270;28;20099;-44
2022/04/17 10:10:08;;;;;;;2.55;1.00;;;;;;;;;;5126437;28;20130;-45
2022/04/17 10:12:37;;;;;;;2.40;1.75;;;;;;;;;;5126128;28;20130;-45
2022/04/17 10:15:06;;;;;;;2.28;0.85;;;;;;;;;;5123814;28;20057;-45
2022/04/17 10:17:32;;;;;;;4.00;1.13;;;;;;;;;;5125794;28;20081;-46
2022/04/17 10:20:12;;;;;;;5.18;2.55;;;;;;;;;;5124724;28;20046;-48
2022/04/17 10:22:38;;;;;;;4.45;2.70;;;;;;;;;;5126387;28;20051;-48
2022/04/17 10:25:04;;;;;;;3.10;2.47;;;;;;;;;;5126342;28;20043;-49
2022/04/17 10:27:32;;;;;;;8.35;3.42;;;;;;;;;;5126009;28;20050;-48
2022/04/17 10:30:03;;;;;;;8.82;3.13;;;;;;;;;;5125474;28;20089;-50
2022/04/17 10:32:48;;;;;;;6.10;1.98;;;;;;;;;;5125616;28;20047;-44
2022/04/17 10:35:19;;;;;;;3.80;1.15;;;;;;;;;;5125968;28;20043;-45
2022/04/17 10:37:46;;;;;;;7.60;0.95;;;;;;;;;;5125314;28;20046;-43
2022/04/17 10:40:12;;;;;;;2.50;1.77;;;;;;;;;;5126274;28;20118;-48
2022/04/17 10:42:52;;;;;;;1.23;0.82;;;;;;;;;;5125341;27;20126;-49
2022/04/17 10:45:18;;;;;;;2.00;1.10;;;;;;;;;;5124976;28;20043;-46
2022/04/17 10:47:59;;;;;;;3.28;1.55;;;;;;;;;;5125413;28;20043;-43
2022/04/17 10:50:25;;;;;;;8.15;3.58;;;;;;;;;;5125118;28;20061;-44
2022/04/17 10:52:54;;;;;;;7.20;3.03;;;;;;;;;;5125183;28;20050;-47
2022/04/17 10:55:20;;;;;;;7.57;1.95;;;;;;;;;;5126278;28;20065;-45
2022/04/17 10:57:47;;;;;;;3.97;1.48;;;;;;;;;;5123996;28;20051;-46
2022/04/17 11:00:26;;;;;;;5.47;2.70;;;;;;;;;;5125026;28;20043;-44
2022/04/17 11:02:51;;;;;;;12.88;1.67;;;;;;;;;;5124957;28;20490;-46
2022/04/17 11:08:25;;;;;;;3.42;1.30;;;;;;;;;;5123381;28;20557;-48
2022/04/17 11:10:57;;;;;;;8.85;3.92;;;;;;;;;;5124955;28;20085;-45
2022/04/17 11:13:25;;;;;;;4.00;1.25;;;;;;;;;;5123897;28;20092;-44
2022/04/17 11:15:57;;;;;;;4.20;1.90;;;;;;;;;;5125346;28;20045;-43
2022/04/17 11:18:29;;;;;;;4.72;2.95;;;;;;;;;;5124926;28;20070;-45
2022/04/17 11:20:55;;;;;;;7.28;2.63;;;;;;;;;;5124580;28;20133;-44
2022/04/17 11:23:39;;;;;;;8.52;2.55;;;;;;;;;;5125616;28;20047;-45
2022/04/17 11:26:05;;;;;;;4.28;3.65;;;;;;;;;;5124751;28;20061;-45
2022/04/17 11:28:34;;;;;;;9.60;3.47;;;;;;;;;;5124864;28;20043;-48
2022/04/17 11:31:00;;;;;;;7.43;2.08;;;;;;;;;;5124770;28;20039;-47
2022/04/17 11:33:25;;;;;;;3.10;1.85;;;;;;;;;;5124625;28;20066;-48
2022/04/17 11:35:51;;;;;;;1.40;1.30;;;;;;;;;;5124657;28;20129;-46
2022/04/17 11:38:17;;;;;;;8.77;1.95;;;;;;;;;;5124839;28;20051;-47
2022/04/17 11:40:44;;;;;;;4.53;2.00;;;;;;;;;;5124035;28;20833;-45
2022/04/17 11:43:14;;;;;;;4.18;1.42;;;;;;;;;;5125124;28;20101;-45
2022/04/17 11:45:40;;;;;;;4.63;1.13;;;;;;;;;;5124610;28;20411;-45
2022/04/17 11:48:07;;;;;;;2.03;1.40;;;;;;;;;;5124897;28;20043;-44
2022/04/17 11:50:33;;;;;;;10.10;3.78;;;;;;;;;;5125010;28;20043;-43
2022/04/17 11:53:05;;;;;;;5.28;2.42;;;;;;;;;;5124162;27;20047;-45
2022/04/17 11:55:32;;;;;;;3.38;1.77;;;;;;;;;;5125040;28;20158;-50
2022/04/17 11:57:58;;;;;;;5.95;1.25;;;;;;;;;;5124482;28;20089;-42
2022/04/17 12:00:25;;;;;;;6.55;1.60;;;;;;;;;;5124433;28;20051;-44
2022/04/17 12:02:54;;;;;;;8.98;2.40;;;;;;;;;;5125025;28;20145;-46
2022/04/17 12:05:20;;;;;;;1.55;1.10;;;;;;;;;;5120035;28;20042;-44
2022/04/17 12:07:54;;;;;;;15.43;1.98;;;;;;;;;;5123841;28;20043;-46
2022/04/17 12:10:22;;;;;;;6.68;1.75;;;;;;;;;;5123948;28;20070;-45
2022/04/17 12:12:47;;;;;;;3.42;1.50;;;;;;;;;;5125095;28;20039;-43
2022/04/17 12:15:15;;;;;;;2.20;1.60;;;;;;;;;;5124575;28;20147;-45
2022/04/17 12:17:41;;;;;;;2.97;1.30;;;;;;;;;;5124577;28;20082;-49
2022/04/17 12:20:08;;;;;;;1.88;1.40;;;;;;;;;;5123381;28;20077;-47
2022/04/17 12:22:34;;;;;;;7.68;3.58;;;;;;;;;;5124299;28;20039;-44
2022/04/17 12:25:00;;;;;;;2.60;1.67;;;;;;;;;;5124356;28;20126;-45
2022/04/17 12:27:26;;;;;;;8.82;1.55;;;;;;;;;;5124306;28;20197;-44
2022/04/17 12:29:58;;;;;;;5.90;2.47;;;;;;;;;;5121696;28;20047;-46
2022/04/17 12:32:24;;;;;;;5.63;2.63;;;;;;;;;;5123973;28;20054;-42
2022/04/17 12:34:56;;;;;;;8.82;2.63;;;;;;;;;;5123730;28;20059;-45
2022/04/17 12:37:24;;;;;;;12.77;8.68;;;;;;;;;;5123282;28;20669;-44
2022/04/17 12:39:50;;;;;;;7.55;4.05;;;;;;;;;;5123156;28;20047;-45
2022/04/17 12:42:18;;;;;;;3.63;1.92;;;;;;;;;;5123937;28;20843;-43
2022/04/17 12:44:44;;;;;;;1.65;1.10;;;;;;;;;;5123889;28;20180;-47
2022/04/17 12:47:14;;;;;;;2.42;1.88;;;;;;;;;;5123609;28;20126;-45
2022/04/17 12:49:39;;;;;;;4.10;2.42;;;;;;;;;;5122748;28;20038;-47
2022/04/17 12:52:05;;;;;;;8.18;2.85;;;;;;;;;;5123234;28;20093;-49
2022/04/17 12:54:31;;;;;;;10.82;2.03;;;;;;;;;;5122858;28;20153;-46
2022/04/17 12:57:08;;;;;;;3.42;1.50;;;;;;;;;;5121900;28;20047;-46
2022/04/17 12:59:45;;;;;;;3.40;2.20;;;;;;;;;;5122637;28;20051;-44
2022/04/17 13:02:11;;;;;;;5.68;3.75;;;;;;;;;;5123027;28;20458;-47
2022/04/17 13:04:47;;;;;;;5.50;4.10;;;;;;;;;;5122239;27;20047;-49
2022/04/17 13:07:15;;;;;;;8.93;3.80;;;;;;;;;;5122413;28;20184;-49
2022/04/17 13:09:58;;;;;;;4.60;2.47;;;;;;;;;;5122822;28;20043;-48
2022/04/17 13:12:35;;;;;;;6.45;2.45;;;;;;;;;;5122935;28;20043;-48
2022/04/17 13:15:06;;;;;;;13.88;4.68;;;;;;;;;;5122245;28;20053;-45
2022/04/17 13:17:42;;;;;;;8.17;3.27;;;;;;;;;;5122827;28;20137;-47
2022/04/17 13:20:08;;;;;;;9.07;2.08;;;;;;;;;;5122848;28;20479;-44
2022/04/17 13:22:33;;;;;;;14.55;3.28;;;;;;;;;;5121550;28;20039;-45
2022/04/17 13:25:00;;;;;;;3.35;2.03;;;;;;;;;;5123092;28;20180;-44
2022/04/17 13:27:25;;;;;;;3.63;1.52;;;;;;;;;;5123339;28;20043;-43
2022/04/17 13:29:51;;;;;;;9.27;3.42;;;;;;;;;;5121860;28;20054;-46
2022/04/17 13:32:16;;;;;;;4.85;3.67;;;;;;;;;;5087049;28;20035;-46
2022/04/17 13:34:42;;;;;;;3.08;1.35;;;;;;;;;;5122796;28;20047;-48
2022/04/17 13:39:52;;;;;;;2.72;1.48;;;;;;;;;;5122857;28;20146;-46
2022/04/17 13:42:17;;;;;;;6.70;3.00;;;;;;;;;;5123624;28;20133;-46
2022/04/17 13:44:42;;;;;;;2.05;1.60;;;;;;;;;;5123627;28;20045;-44
2022/04/17 13:47:08;;;;;;;12.57;2.90;;;;;;;;;;5122617;28;20537;-48
2022/04/17 13:49:33;;;;;;;1.88;1.27;;;;;;;;;;5122217;28;20043;-46
2022/04/17 13:52:01;;;;;;;12.02;2.28;;;;;;;;;;5122913;28;20063;-46
2022/04/17 13:54:27;;;;;;;6.88;2.47;;;;;;;;;;5123034;28;20133;-48
2022/04/17 13:56:52;;;;;;;2.72;1.25;;;;;;;;;;5122743;28;20055;-50
2022/04/17 13:59:17;;;;;;;10.10;2.30;;;;;;;;;;5123077;28;20468;-43
2022/04/17 14:01:43;;;;;;;3.72;1.75;;;;;;;;;;5122751;28;20134;-49
2022/04/17 14:04:08;;;;;;;3.22;1.90;;;;;;;;;;5122102;28;20089;-45
2022/04/17 14:06:35;;;;;;;8.57;0.70;;;;;;;;;;5122475;28;20071;-46
2022/04/17 14:09:02;;;;;;;6.70;3.47;;;;;;;;;;5122623;28;20786;-45
2022/04/17 14:11:28;;;;;;;4.78;2.50;;;;;;;;;;5121740;28;20115;-45
2022/04/17 14:13:54;;;;;;;7.40;1.52;;;;;;;;;;5123091;28;20490;-44
2022/04/17 14:16:19;;;;;;;7.43;2.20;;;;;;;;;;5122853;27;20129;-46
2022/04/17 14:18:44;;;;;;;7.18;2.42;;;;;;;;;;5125523;28;20082;-46
2022/04/17 14:21:10;;;;;;;6.90;2.83;;;;;;;;;;5125981;28;20511;-47
2022/04/17 14:23:35;;;;;;;3.67;1.60;;;;;;;;;;5126166;28;20079;-46
2022/04/17 14:26:01;;;;;;;2.70;1.55;;;;;;;;;;5126299;28;20092;-43
2022/04/17 14:28:26;;;;;;;5.05;1.13;;;;;;;;;;5126588;28;20082;-49
2022/04/17 14:30:52;;;;;;;2.35;1.38;;;;;;;;;;5125140;28;20031;-48
2022/04/17 14:33:18;;;;;;;5.05;2.63;;;;;;;;;;5125750;28;20450;-45
2022/04/17 14:35:43;;;;;;;3.67;1.70;;;;;;;;;;5125676;28;20435;-45
2022/04/17 14:38:09;;;;;;;0.80;0.47;;;;;;;;;;5125991;28;20047;-48
2022/04/17 14:40:34;;;;;;;2.75;1.33;;;;;;;;;;5125093;28;20471;-45
2022/04/17 14:43:00;;;;;;;5.15;1.77;;;;;;;;;;5126031;28;20100;-46
2022/04/17 14:45:26;;;;;;;9.10;2.10;;;;;;;;;;5126098;28;20505;-47
2022/04/17 14:47:52;;;;;;;5.47;1.55;;;;;;;;;;5125902;28;20055;-48
2022/04/17 14:50:17;;;;;;;7.85;3.05;;;;;;;;;;5125168;28;20445;-46
2022/04/17 14:52:43;;;;;;;10.50;2.97;;;;;;;;;;5125782;28;20043;-43
2022/04/17 14:55:09;;;;;;;3.85;1.83;;;;;;;;;;5125529;28;20039;-44
2022/04/17 14:57:34;;;;;;;7.45;3.90;;;;;;;;;;5124981;28;20058;-48